Progress Software Pre-Tax Profit Margin 2010-2023 | PRGS

Progress Software pre-tax profit margin from 2010 to 2023. Pre-tax profit margin can be defined as earnings before taxes as a portion of total revenue.
Progress Software Pre-Tax Profit Margin Historical Data
Date TTM Revenue TTM Pre-Tax Income Pre-Tax Margin
2023-11-30 $0.69B $0.08B 11.53%
2023-08-31 $0.67B $0.09B 13.80%
2023-05-31 $0.65B $0.10B 15.38%
2023-02-28 $0.62B $0.12B 19.65%
2022-11-30 $0.60B $0.12B 19.60%
2022-08-31 $0.59B $0.11B 17.95%
2022-05-31 $0.58B $0.12B 20.14%
2022-02-28 $0.55B $0.10B 17.51%
2021-11-30 $0.53B $0.10B 18.11%
2021-08-31 $0.51B $0.10B 19.34%
2021-05-31 $0.48B $0.09B 18.74%
2021-02-28 $0.45B $0.09B 20.75%
2020-11-30 $0.44B $0.10B 21.72%
2020-08-31 $0.44B $0.07B 15.79%
2020-05-31 $0.43B $0.05B 11.75%
2020-02-29 $0.43B $0.04B 9.45%
2019-11-30 $0.41B $0.03B 6.52%
2019-08-31 $0.40B $0.05B 11.65%
2019-05-31 $0.38B $0.05B 13.39%
2019-02-28 $0.37B $0.06B 14.97%
2018-11-30 $0.38B $0.06B 16.09%
2018-08-31 $0.39B $0.07B 17.22%
2018-05-31 $0.39B $0.07B 17.56%
2018-02-28 $0.39B $0.07B 18.07%
2017-11-30 $0.39B $0.05B 13.62%
2017-08-31 $0.40B $-0.03B -6.27%
2017-05-31 $0.40B $-0.03B -7.92%
2017-02-28 $0.41B $-0.04B -9.83%
2016-11-30 $0.41B $-0.04B -8.64%
2016-08-31 $0.40B $0.05B 11.75%
2016-05-31 $0.39B $0.04B 10.69%
2016-02-29 $0.39B $0.03B 6.99%
2015-11-30 $0.38B $0.01B 3.17%
2015-08-31 $0.36B $0.02B 5.51%
2015-05-31 $0.35B $0.03B 8.65%
2015-02-28 $0.34B $0.05B 15.93%
2014-11-30 $0.33B $0.08B 23.42%
2014-08-31 $0.33B $0.08B 23.01%
2014-05-31 $0.33B $0.07B 20.92%
2014-02-28 $0.33B $0.06B 19.02%
2013-11-30 $0.34B $0.06B 18.81%
2013-08-31 $0.33B $0.06B 19.33%
2013-05-31 $0.32B $0.07B 20.19%
2013-02-28 $0.31B $0.06B 20.38%
2012-11-30 $0.32B $0.07B 21.45%
2012-08-31 $0.33B $0.07B 22.19%
2012-05-31 $0.38B $0.08B 19.74%
2012-02-29 $0.44B $0.09B 20.18%
2011-11-30 $0.49B $0.10B 20.08%
2011-08-31 $0.54B $0.10B 18.74%
2011-05-31 $0.54B $0.10B 18.78%
2011-02-28 $0.54B $0.10B 19.03%
2010-11-30 $0.53B $0.07B 13.58%
2010-08-31 $0.52B $0.07B 12.45%
2010-05-31 $0.51B $0.06B 11.52%
2010-02-28 $0.50B $0.04B 8.58%
2009-11-30 $0.49B $0.05B 10.32%
Sector Industry Market Cap Revenue
Computer and Technology Computer Software $2.267B $0.694B
Progress offers the leading platform for developing and deploying mission-critical business applications. Progress empowers enterprises and ISVs to build and deliver cognitive-first applications that harness big data to derive business insights and competitive advantage. Progress offers leading technologies for easily building powerful user interfaces across any type of device, a reliable, scalable and secure backend platform to deploy modern applications, leading data connectivity to all sources, and award-winning predictive analytics that brings the power of machine learning to any organization.
Stock Name Country Market Cap PE Ratio
Microsoft (MSFT) United States $3179.707B 38.69
Oracle (ORCL) United States $338.725B 27.57
Salesforce (CRM) United States $290.176B 48.41
Adobe (ADBE) United States $216.957B 36.28
Intuit (INTU) United States $175.759B 58.94
Synopsys (SNPS) United States $85.700B 61.82
Cadence Design Systems (CDNS) United States $84.421B 76.95
Dassault Systemes SA (DASTY) France $57.365B 37.60
Autodesk (ADSK) United States $51.563B 50.75
ANSYS (ANSS) United States $29.691B 50.09
MicroStrategy (MSTR) United States $26.331B 52.46
PTC (PTC) United States $21.791B 64.18
SS&C Technologies Holdings (SSNC) United States $15.208B 14.97
Manhattan Associates (MANH) United States $14.755B 84.99
Open Text (OTEX) Canada $9.788B 10.50
Descartes Systems Group (DSGX) Canada $7.664B 67.20
Trend Micro (TMICY) Japan $7.320B 64.95
Pegasystems (PEGA) United States $5.238B 71.76
CommVault Systems (CVLT) United States $4.287B 76.50
Blackbaud (BLKB) United States $4.063B 36.35
ACI Worldwide (ACIW) United States $3.496B 17.95
Verint Systems (VRNT) United States $1.945B 17.95
BlackBerry (BB) Canada $1.880B 0.00
Sapiens (SPNS) Israel $1.747B 24.75
PROS Holdings (PRO) United States $1.716B 0.00
Simulations Plus (SLP) United States $0.956B 70.37
Magic Software Enterprises (MGIC) Israel $0.576B 11.85
Rand Worldwide (RWWI) United States $0.573B 0.00
American Software (AMSWA) United States $0.397B 33.19
Canaan (CAN) China $0.294B 0.00
OptimizeRx (OPRX) United States $0.200B 0.00
Rigetti Computing (RGTI) United States $0.199B 0.00
Icad Inc (ICAD) United States $0.045B 0.00
NetSol Technologies (NTWK) United States $0.031B 0.00
Neonode (NEON) Sweden $0.023B 0.00
Smith Micro Software (SMSI) United States $0.023B 0.00
Hanryu Holdings (HRYU) South Korea $0.021B 0.00
Wetouch Technology (WETH) $0.019B 0.00
GSE Systems (GVP) United States $0.010B 0.00
SAP SE (SAP) Germany $0.000B 48.99